sensor_id;sensor_type;location;lat;lon;timestamp;temperature;humidity
35804;DHT22;21924;51.934;7.414;2023-05-07T00:01:05;14.00;99.90
35804;DHT22;21924;51.934;7.414;2023-05-07T00:03:50;14.00;99.90
35804;DHT22;21924;51.934;7.414;2023-05-07T00:06:34;14.00;99.90
35804;DHT22;21924;51.934;7.414;2023-05-07T00:09:18;13.90;99.90
35804;DHT22;21924;51.934;7.414;2023-05-07T00:12:03;13.90;99.90
35804;DHT22;21924;51.934;7.414;2023-05-07T00:14:47;13.90;99.90
35804;DHT22;21924;51.934;7.414;2023-05-07T00:17:32;13.90;99.90
35804;DHT22;21924;51.934;7.414;2023-05-07T00:20:17;13.90;99.90
35804;DHT22;21924;51.934;7.414;2023-05-07T00:23:01;13.90;99.90
35804;DHT22;21924;51.934;7.414;2023-05-07T00:25:45;13.90;99.90
35804;DHT22;21924;51.934;7.414;2023-05-07T00:28:30;14.00;99.90
35804;DHT22;21924;51.934;7.414;2023-05-07T00:31:14;13.90;99.90
35804;DHT22;21924;51.934;7.414;2023-05-07T00:33:58;13.90;99.90
35804;DHT22;21924;51.934;7.414;2023-05-07T00:36:43;13.90;99.90
35804;DHT22;21924;51.934;7.414;2023-05-07T00:39:27;13.90;99.90
35804;DHT22;21924;51.934;7.414;2023-05-07T00:42:11;13.90;99.90
35804;DHT22;21924;51.934;7.414;2023-05-07T00:44:55;13.90;99.90
35804;DHT22;21924;51.934;7.414;2023-05-07T00:47:40;13.90;99.90
35804;DHT22;21924;51.934;7.414;2023-05-07T00:50:28;13.90;99.90
35804;DHT22;21924;51.934;7.414;2023-05-07T00:53:13;13.90;99.90
35804;DHT22;21924;51.934;7.414;2023-05-07T00:55:57;13.80;99.90
35804;DHT22;21924;51.934;7.414;2023-05-07T00:58:42;13.90;99.90
35804;DHT22;21924;51.934;7.414;2023-05-07T01:01:26;13.80;99.90
35804;DHT22;21924;51.934;7.414;2023-05-07T01:04:11;13.80;99.90
35804;DHT22;21924;51.934;7.414;2023-05-07T01:06:56;13.80;99.90
35804;DHT22;21924;51.934;7.414;2023-05-07T01:09:42;13.80;99.90
35804;DHT22;21924;51.934;7.414;2023-05-07T01:12:26;13.80;99.90
35804;DHT22;21924;51.934;7.414;2023-05-07T01:15:11;13.80;99.90
35804;DHT22;21924;51.934;7.414;2023-05-07T01:17:56;13.80;99.90
35804;DHT22;21924;51.934;7.414;2023-05-07T01:20:42;13.80;99.90
35804;DHT22;21924;51.934;7.414;2023-05-07T01:23:27;13.80;99.90
35804;DHT22;21924;51.934;7.414;2023-05-07T01:26:11;13.80;99.90
35804;DHT22;21924;51.934;7.414;2023-05-07T01:28:56;13.80;99.90
35804;DHT22;21924;51.934;7.414;2023-05-07T01:31:41;13.80;99.90
35804;DHT22;21924;51.934;7.414;2023-05-07T01:34:31;13.80;99.90
35804;DHT22;21924;51.934;7.414;2023-05-07T01:37:16;13.80;99.90
35804;DHT22;21924;51.934;7.414;2023-05-07T01:40:01;13.80;99.90
35804;DHT22;21924;51.934;7.414;2023-05-07T01:42:47;13.70;99.90
35804;DHT22;21924;51.934;7.414;2023-05-07T01:45:32;13.70;99.90
35804;DHT22;21924;51.934;7.414;2023-05-07T01:48:17;13.70;99.90
35804;DHT22;21924;51.934;7.414;2023-05-07T01:51:02;13.70;99.90
35804;DHT22;21924;51.934;7.414;2023-05-07T01:53:46;13.70;99.90
35804;DHT22;21924;51.934;7.414;2023-05-07T01:56:34;13.80;99.90
35804;DHT22;21924;51.934;7.414;2023-05-07T01:59:18;13.70;99.90
35804;DHT22;21924;51.934;7.414;2023-05-07T02:02:03;13.60;99.90
35804;DHT22;21924;51.934;7.414;2023-05-07T02:04:47;13.60;99.90
35804;DHT22;21924;51.934;7.414;2023-05-07T02:07:31;13.50;99.90
35804;DHT22;21924;51.934;7.414;2023-05-07T02:10:15;13.50;99.90
35804;DHT22;21924;51.934;7.414;2023-05-07T02:12:59;13.50;99.90
35804;DHT22;21924;51.934;7.414;2023-05-07T02:15:45;13.50;99.90
35804;DHT22;21924;51.934;7.414;2023-05-07T02:18:33;13.50;99.90
35804;DHT22;21924;51.934;7.414;2023-05-07T02:21:17;13.50;99.90
35804;DHT22;21924;51.934;7.414;2023-05-07T02:24:02;13.40;99.90
35804;DHT22;21924;51.934;7.414;2023-05-07T02:26:46;13.40;99.90
35804;DHT22;21924;51.934;7.414;2023-05-07T02:29:31;13.40;99.90
35804;DHT22;21924;51.934;7.414;2023-05-07T02:32:15;13.30;99.90
35804;DHT22;21924;51.934;7.414;2023-05-07T02:34:59;13.30;99.90
35804;DHT22;21924;51.934;7.414;2023-05-07T02:37:44;13.30;99.90
35804;DHT22;21924;51.934;7.414;2023-05-07T02:40:28;13.30;99.90
35804;DHT22;21924;51.934;7.414;2023-05-07T02:43:12;13.30;99.90
35804;DHT22;21924;51.934;7.414;2023-05-07T02:46:01;13.30;99.90
35804;DHT22;21924;51.934;7.414;2023-05-07T02:48:45;13.30;99.90
35804;DHT22;21924;51.934;7.414;2023-05-07T02:51:30;13.20;99.90
35804;DHT22;21924;51.934;7.414;2023-05-07T02:54:14;13.20;99.90
35804;DHT22;21924;51.934;7.414;2023-05-07T02:56:58;13.20;99.90
35804;DHT22;21924;51.934;7.414;2023-05-07T02:59:44;13.20;99.90
35804;DHT22;21924;51.934;7.414;2023-05-07T03:02:28;13.10;99.90
35804;DHT22;21924;51.934;7.414;2023-05-07T03:05:12;13.10;99.90
35804;DHT22;21924;51.934;7.414;2023-05-07T03:07:58;13.00;99.90
35804;DHT22;21924;51.934;7.414;2023-05-07T03:10:42;13.00;99.90
35804;DHT22;21924;51.934;7.414;2023-05-07T03:13:26;13.00;99.90
35804;DHT22;21924;51.934;7.414;2023-05-07T03:16:11;12.90;99.90
35804;DHT22;21924;51.934;7.414;2023-05-07T03:18:55;12.90;99.90
35804;DHT22;21924;51.934;7.414;2023-05-07T03:21:39;12.90;99.90
35804;DHT22;21924;51.934;7.414;2023-05-07T03:24:23;12.90;99.90
35804;DHT22;21924;51.934;7.414;2023-05-07T03:27:07;12.80;99.90
35804;DHT22;21924;51.934;7.414;2023-05-07T03:29:52;12.80;99.90
35804;DHT22;21924;51.934;7.414;2023-05-07T03:32:36;12.80;99.90
35804;DHT22;21924;51.934;7.414;2023-05-07T03:35:20;12.70;99.90
35804;DHT22;21924;51.934;7.414;2023-05-07T03:38:05;12.70;99.90
35804;DHT22;21924;51.934;7.414;2023-05-07T03:40:49;12.60;99.90
35804;DHT22;21924;51.934;7.414;2023-05-07T03:43:33;12.50;99.90
35804;DHT22;21924;51.934;7.414;2023-05-07T03:46:17;12.50;99.90
35804;DHT22;21924;51.934;7.414;2023-05-07T03:49:02;12.50;99.90
35804;DHT22;21924;51.934;7.414;2023-05-07T03:51:46;12.50;99.90
35804;DHT22;21924;51.934;7.414;2023-05-07T03:54:30;12.50;99.90
35804;DHT22;21924;51.934;7.414;2023-05-07T03:57:15;12.50;99.90
35804;DHT22;21924;51.934;7.414;2023-05-07T03:59:59;12.50;99.90
35804;DHT22;21924;51.934;7.414;2023-05-07T04:02:43;12.50;99.90
35804;DHT22;21924;51.934;7.414;2023-05-07T04:05:27;12.50;99.90
35804;DHT22;21924;51.934;7.414;2023-05-07T04:08:12;12.50;99.90
35804;DHT22;21924;51.934;7.414;2023-05-07T04:10:57;12.50;99.90
35804;DHT22;21924;51.934;7.414;2023-05-07T04:13:41;12.50;99.90
35804;DHT22;21924;51.934;7.414;2023-05-07T04:16:25;12.50;99.90
35804;DHT22;21924;51.934;7.414;2023-05-07T04:19:09;12.50;99.90
35804;DHT22;21924;51.934;7.414;2023-05-07T04:21:54;12.50;99.90
35804;DHT22;21924;51.934;7.414;2023-05-07T04:24:38;12.50;99.90
35804;DHT22;21924;51.934;7.414;2023-05-07T04:27:23;12.60;99.90
35804;DHT22;21924;51.934;7.414;2023-05-07T04:30:07;12.50;99.90
35804;DHT22;21924;51.934;7.414;2023-05-07T04:32:52;12.60;99.90
35804;DHT22;21924;51.934;7.414;2023-05-07T04:35:36;12.70;99.90
35804;DHT22;21924;51.934;7.414;2023-05-07T04:38:21;12.70;99.90
35804;DHT22;21924;51.934;7.414;2023-05-07T04:41:08;12.70;99.90
35804;DHT22;21924;51.934;7.414;2023-05-07T04:43:53;12.70;99.90
35804;DHT22;21924;51.934;7.414;2023-05-07T04:46:37;12.70;99.90
35804;DHT22;21924;51.934;7.414;2023-05-07T04:49:21;12.70;99.90
35804;DHT22;21924;51.934;7.414;2023-05-07T04:52:05;12.70;99.90
35804;DHT22;21924;51.934;7.414;2023-05-07T04:54:50;12.70;99.90
35804;DHT22;21924;51.934;7.414;2023-05-07T04:57:34;12.70;99.90
35804;DHT22;21924;51.934;7.414;2023-05-07T05:00:18;12.70;99.90
35804;DHT22;21924;51.934;7.414;2023-05-07T05:03:03;12.70;99.90
35804;DHT22;21924;51.934;7.414;2023-05-07T05:05:49;12.80;99.90
35804;DHT22;21924;51.934;7.414;2023-05-07T05:08:33;12.80;99.90
35804;DHT22;21924;51.934;7.414;2023-05-07T05:11:17;12.80;99.90
35804;DHT22;21924;51.934;7.414;2023-05-07T05:14:02;12.80;99.90
35804;DHT22;21924;51.934;7.414;2023-05-07T05:16:46;12.90;99.90
35804;DHT22;21924;51.934;7.414;2023-05-07T05:19:30;12.90;99.90
35804;DHT22;21924;51.934;7.414;2023-05-07T05:22:15;13.00;99.90
35804;DHT22;21924;51.934;7.414;2023-05-07T05:24:59;13.10;99.90
35804;DHT22;21924;51.934;7.414;2023-05-07T05:27:44;13.10;99.90
35804;DHT22;21924;51.934;7.414;2023-05-07T05:30:28;13.20;99.90
35804;DHT22;21924;51.934;7.414;2023-05-07T05:33:13;13.20;99.90
35804;DHT22;21924;51.934;7.414;2023-05-07T05:35:57;13.20;99.90
35804;DHT22;21924;51.934;7.414;2023-05-07T05:38:41;13.20;99.90
35804;DHT22;21924;51.934;7.414;2023-05-07T05:41:25;13.30;99.90
35804;DHT22;21924;51.934;7.414;2023-05-07T05:44:10;13.30;99.90
35804;DHT22;21924;51.934;7.414;2023-05-07T05:46:54;13.30;99.90
35804;DHT22;21924;51.934;7.414;2023-05-07T05:49:39;13.40;99.90
35804;DHT22;21924;51.934;7.414;2023-05-07T05:52:23;13.30;99.90
35804;DHT22;21924;51.934;7.414;2023-05-07T05:55:08;13.30;99.90
35804;DHT22;21924;51.934;7.414;2023-05-07T05:57:52;13.40;99.90
35804;DHT22;21924;51.934;7.414;2023-05-07T06:00:36;13.50;99.90
35804;DHT22;21924;51.934;7.414;2023-05-07T06:03:20;13.60;99.90
35804;DHT22;21924;51.934;7.414;2023-05-07T06:06:05;13.70;99.90
35804;DHT22;21924;51.934;7.414;2023-05-07T06:08:49;13.70;99.90
35804;DHT22;21924;51.934;7.414;2023-05-07T06:11:33;13.80;99.90
35804;DHT22;21924;51.934;7.414;2023-05-07T06:14:17;13.80;99.90
35804;DHT22;21924;51.934;7.414;2023-05-07T06:17:02;13.80;99.90
35804;DHT22;21924;51.934;7.414;2023-05-07T06:19:46;14.00;99.90
35804;DHT22;21924;51.934;7.414;2023-05-07T06:22:30;14.00;99.90
35804;DHT22;21924;51.934;7.414;2023-05-07T06:25:14;14.20;99.90
35804;DHT22;21924;51.934;7.414;2023-05-07T06:27:59;14.30;99.90
35804;DHT22;21924;51.934;7.414;2023-05-07T06:30:43;14.50;99.90
35804;DHT22;21924;51.934;7.414;2023-05-07T06:33:27;14.60;99.90
35804;DHT22;21924;51.934;7.414;2023-05-07T06:36:12;14.60;99.90
35804;DHT22;21924;51.934;7.414;2023-05-07T06:38:56;14.60;99.90
35804;DHT22;21924;51.934;7.414;2023-05-07T06:41:40;14.80;99.90
35804;DHT22;21924;51.934;7.414;2023-05-07T06:44:25;14.80;99.90
35804;DHT22;21924;51.934;7.414;2023-05-07T06:47:09;14.80;99.90
35804;DHT22;21924;51.934;7.414;2023-05-07T06:49:53;14.80;99.90
35804;DHT22;21924;51.934;7.414;2023-05-07T06:52:37;14.80;99.90
35804;DHT22;21924;51.934;7.414;2023-05-07T06:55:22;14.70;99.90
35804;DHT22;21924;51.934;7.414;2023-05-07T06:58:06;14.60;99.90
35804;DHT22;21924;51.934;7.414;2023-05-07T07:00:51;14.60;99.90
35804;DHT22;21924;51.934;7.414;2023-05-07T07:03:35;14.70;99.90
35804;DHT22;21924;51.934;7.414;2023-05-07T07:06:19;14.80;99.90
35804;DHT22;21924;51.934;7.414;2023-05-07T07:09:04;14.70;99.90
35804;DHT22;21924;51.934;7.414;2023-05-07T07:11:48;14.80;99.90
35804;DHT22;21924;51.934;7.414;2023-05-07T07:14:32;14.80;99.90
35804;DHT22;21924;51.934;7.414;2023-05-07T07:17:16;14.90;99.90
35804;DHT22;21924;51.934;7.414;2023-05-07T07:20:01;15.10;99.90
35804;DHT22;21924;51.934;7.414;2023-05-07T07:22:45;15.30;99.90
35804;DHT22;21924;51.934;7.414;2023-05-07T07:25:29;15.40;99.90
35804;DHT22;21924;51.934;7.414;2023-05-07T07:28:14;15.20;99.90
35804;DHT22;21924;51.934;7.414;2023-05-07T07:30:58;15.30;99.90
35804;DHT22;21924;51.934;7.414;2023-05-07T07:33:42;15.10;99.90
35804;DHT22;21924;51.934;7.414;2023-05-07T07:36:26;15.00;99.90
35804;DHT22;21924;51.934;7.414;2023-05-07T07:39:11;14.90;99.90
35804;DHT22;21924;51.934;7.414;2023-05-07T07:41:55;15.10;99.90
35804;DHT22;21924;51.934;7.414;2023-05-07T07:44:39;15.40;99.90
35804;DHT22;21924;51.934;7.414;2023-05-07T07:47:23;15.60;99.90
35804;DHT22;21924;51.934;7.414;2023-05-07T07:50:08;15.80;99.90
35804;DHT22;21924;51.934;7.414;2023-05-07T07:52:52;15.60;99.90
35804;DHT22;21924;51.934;7.414;2023-05-07T07:55:39;15.60;99.90
35804;DHT22;21924;51.934;7.414;2023-05-07T07:58:24;15.70;99.90
35804;DHT22;21924;51.934;7.414;2023-05-07T08:01:08;15.70;99.90
35804;DHT22;21924;51.934;7.414;2023-05-07T08:03:53;15.90;99.90
35804;DHT22;21924;51.934;7.414;2023-05-07T08:06:37;16.20;99.90
35804;DHT22;21924;51.934;7.414;2023-05-07T08:09:21;16.40;99.90
35804;DHT22;21924;51.934;7.414;2023-05-07T08:12:06;16.70;99.90
35804;DHT22;21924;51.934;7.414;2023-05-07T08:14:50;16.50;99.90
35804;DHT22;21924;51.934;7.414;2023-05-07T08:17:34;16.30;99.90
35804;DHT22;21924;51.934;7.414;2023-05-07T08:20:19;16.30;99.90
35804;DHT22;21924;51.934;7.414;2023-05-07T08:23:03;16.50;99.90
35804;DHT22;21924;51.934;7.414;2023-05-07T08:25:48;16.40;99.90
35804;DHT22;21924;51.934;7.414;2023-05-07T08:28:32;16.30;99.90
35804;DHT22;21924;51.934;7.414;2023-05-07T08:31:17;16.60;99.90
35804;DHT22;21924;51.934;7.414;2023-05-07T08:34:01;16.60;99.90
35804;DHT22;21924;51.934;7.414;2023-05-07T08:36:45;16.80;99.90
35804;DHT22;21924;51.934;7.414;2023-05-07T08:39:32;16.80;99.90
35804;DHT22;21924;51.934;7.414;2023-05-07T08:42:17;16.90;99.90
35804;DHT22;21924;51.934;7.414;2023-05-07T08:45:03;16.70;99.90
35804;DHT22;21924;51.934;7.414;2023-05-07T08:47:55;16.80;99.90
35804;DHT22;21924;51.934;7.414;2023-05-07T08:50:42;16.90;99.90
35804;DHT22;21924;51.934;7.414;2023-05-07T08:53:26;17.00;99.90
35804;DHT22;21924;51.934;7.414;2023-05-07T08:56:11;17.00;99.90
35804;DHT22;21924;51.934;7.414;2023-05-07T08:58:55;17.20;99.90
35804;DHT22;21924;51.934;7.414;2023-05-07T09:01:42;17.00;99.90
35804;DHT22;21924;51.934;7.414;2023-05-07T09:04:27;17.20;99.90
35804;DHT22;21924;51.934;7.414;2023-05-07T09:07:11;17.40;99.90
35804;DHT22;21924;51.934;7.414;2023-05-07T09:09:56;17.60;99.90
35804;DHT22;21924;51.934;7.414;2023-05-07T09:12:41;17.60;99.90
35804;DHT22;21924;51.934;7.414;2023-05-07T09:15:26;17.80;99.90
35804;DHT22;21924;51.934;7.414;2023-05-07T09:18:11;17.80;99.90
35804;DHT22;21924;51.934;7.414;2023-05-07T09:20:56;17.50;99.90
35804;DHT22;21924;51.934;7.414;2023-05-07T09:23:40;17.60;99.90
35804;DHT22;21924;51.934;7.414;2023-05-07T09:26:25;17.70;99.90
35804;DHT22;21924;51.934;7.414;2023-05-07T09:29:10;17.80;99.90
35804;DHT22;21924;51.934;7.414;2023-05-07T09:31:55;17.90;99.90
35804;DHT22;21924;51.934;7.414;2023-05-07T09:34:39;18.00;99.90
35804;DHT22;21924;51.934;7.414;2023-05-07T09:37:26;18.20;99.90
35804;DHT22;21924;51.934;7.414;2023-05-07T09:40:28;18.20;99.90
35804;DHT22;21924;51.934;7.414;2023-05-07T09:43:13;18.10;99.90
35804;DHT22;21924;51.934;7.414;2023-05-07T09:45:58;18.10;99.90
35804;DHT22;21924;51.934;7.414;2023-05-07T09:48:44;18.20;99.90
35804;DHT22;21924;51.934;7.414;2023-05-07T09:51:39;18.50;99.90
35804;DHT22;21924;51.934;7.414;2023-05-07T09:54:25;18.70;99.90
35804;DHT22;21924;51.934;7.414;2023-05-07T09:57:11;18.70;99.90
35804;DHT22;21924;51.934;7.414;2023-05-07T09:59:57;18.90;99.90
35804;DHT22;21924;51.934;7.414;2023-05-07T10:02:43;18.60;99.90
35804;DHT22;21924;51.934;7.414;2023-05-07T10:05:32;18.80;99.90
35804;DHT22;21924;51.934;7.414;2023-05-07T10:08:17;18.90;99.90
35804;DHT22;21924;51.934;7.414;2023-05-07T10:11:04;19.10;99.90
35804;DHT22;21924;51.934;7.414;2023-05-07T10:13:49;19.10;99.90
35804;DHT22;21924;51.934;7.414;2023-05-07T10:16:35;19.00;99.90
35804;DHT22;21924;51.934;7.414;2023-05-07T10:19:20;19.20;99.90
35804;DHT22;21924;51.934;7.414;2023-05-07T10:22:06;19.30;99.90
35804;DHT22;21924;51.934;7.414;2023-05-07T10:24:52;19.30;99.90
35804;DHT22;21924;51.934;7.414;2023-05-07T10:27:39;19.50;99.90
35804;DHT22;21924;51.934;7.414;2023-05-07T10:30:29;19.80;99.90
35804;DHT22;21924;51.934;7.414;2023-05-07T10:33:17;19.80;99.90
35804;DHT22;21924;51.934;7.414;2023-05-07T10:36:03;19.80;99.90
35804;DHT22;21924;51.934;7.414;2023-05-07T10:38:48;19.50;99.90
35804;DHT22;21924;51.934;7.414;2023-05-07T10:41:33;19.60;99.90
35804;DHT22;21924;51.934;7.414;2023-05-07T10:44:27;19.70;99.90
35804;DHT22;21924;51.934;7.414;2023-05-07T10:47:14;19.70;99.90
35804;DHT22;21924;51.934;7.414;2023-05-07T10:53:20;19.80;99.90
35804;DHT22;21924;51.934;7.414;2023-05-07T10:56:24;19.50;99.90
35804;DHT22;21924;51.934;7.414;2023-05-07T11:02:08;19.70;99.90
35804;DHT22;21924;51.934;7.414;2023-05-07T11:05:21;19.70;99.90
35804;DHT22;21924;51.934;7.414;2023-05-07T11:08:06;19.70;99.90
35804;DHT22;21924;51.934;7.414;2023-05-07T11:10:53;20.00;99.90
35804;DHT22;21924;51.934;7.414;2023-05-07T11:13:45;19.90;99.90
35804;DHT22;21924;51.934;7.414;2023-05-07T11:16:30;20.00;99.90
35804;DHT22;21924;51.934;7.414;2023-05-07T11:19:16;20.10;99.90
35804;DHT22;21924;51.934;7.414;2023-05-07T11:22:00;20.20;99.90
35804;DHT22;21924;51.934;7.414;2023-05-07T11:24:46;20.80;99.90
35804;DHT22;21924;51.934;7.414;2023-05-07T11:27:31;21.00;99.90
35804;DHT22;21924;51.934;7.414;2023-05-07T11:30:18;20.80;99.90
35804;DHT22;21924;51.934;7.414;2023-05-07T11:33:03;21.20;99.90
35804;DHT22;21924;51.934;7.414;2023-05-07T11:35:48;21.20;99.90
35804;DHT22;21924;51.934;7.414;2023-05-07T11:38:36;21.30;99.90
35804;DHT22;21924;51.934;7.414;2023-05-07T11:41:22;21.50;99.90
35804;DHT22;21924;51.934;7.414;2023-05-07T11:44:16;21.70;99.90
35804;DHT22;21924;51.934;7.414;2023-05-07T11:47:01;21.10;99.90
35804;DHT22;21924;51.934;7.414;2023-05-07T11:49:53;21.20;99.90
35804;DHT22;21924;51.934;7.414;2023-05-07T11:52:37;21.30;99.90
35804;DHT22;21924;51.934;7.414;2023-05-07T11:55:24;21.40;99.90
35804;DHT22;21924;51.934;7.414;2023-05-07T11:58:11;21.40;99.90
35804;DHT22;21924;51.934;7.414;2023-05-07T12:00:56;21.90;99.90
35804;DHT22;21924;51.934;7.414;2023-05-07T12:03:41;22.00;99.90
35804;DHT22;21924;51.934;7.414;2023-05-07T12:06:29;21.80;99.90
35804;DHT22;21924;51.934;7.414;2023-05-07T12:09:14;21.40;99.90
35804;DHT22;21924;51.934;7.414;2023-05-07T12:12:03;21.20;99.90
35804;DHT22;21924;51.934;7.414;2023-05-07T12:14:48;21.50;99.90
35804;DHT22;21924;51.934;7.414;2023-05-07T12:17:32;21.70;99.90
35804;DHT22;21924;51.934;7.414;2023-05-07T12:20:16;21.70;99.90
35804;DHT22;21924;51.934;7.414;2023-05-07T12:23:02;22.20;99.90
35804;DHT22;21924;51.934;7.414;2023-05-07T12:25:46;22.20;99.90
35804;DHT22;21924;51.934;7.414;2023-05-07T12:28:36;22.10;99.90
35804;DHT22;21924;51.934;7.414;2023-05-07T12:31:21;21.90;99.90
35804;DHT22;21924;51.934;7.414;2023-05-07T12:34:06;22.20;99.90
35804;DHT22;21924;51.934;7.414;2023-05-07T12:36:50;22.30;99.90
35804;DHT22;21924;51.934;7.414;2023-05-07T12:39:34;22.50;99.90
35804;DHT22;21924;51.934;7.414;2023-05-07T12:42:21;22.40;99.90
35804;DHT22;21924;51.934;7.414;2023-05-07T12:45:11;22.50;99.90
35804;DHT22;21924;51.934;7.414;2023-05-07T12:47:56;22.10;99.90
35804;DHT22;21924;51.934;7.414;2023-05-07T12:50:40;21.80;99.90
35804;DHT22;21924;51.934;7.414;2023-05-07T12:53:26;22.20;99.90
35804;DHT22;21924;51.934;7.414;2023-05-07T12:56:10;22.20;99.90
35804;DHT22;21924;51.934;7.414;2023-05-07T12:58:57;22.10;99.90
35804;DHT22;21924;51.934;7.414;2023-05-07T13:01:44;22.30;99.90
35804;DHT22;21924;51.934;7.414;2023-05-07T13:04:28;22.20;99.90
35804;DHT22;21924;51.934;7.414;2023-05-07T13:07:12;22.40;99.90
35804;DHT22;21924;51.934;7.414;2023-05-07T13:09:57;22.10;99.90
35804;DHT22;21924;51.934;7.414;2023-05-07T13:12:41;21.80;99.90
35804;DHT22;21924;51.934;7.414;2023-05-07T13:15:25;22.30;99.90
35804;DHT22;21924;51.934;7.414;2023-05-07T13:18:11;21.90;99.90
35804;DHT22;21924;51.934;7.414;2023-05-07T13:20:55;21.90;99.90
35804;DHT22;21924;51.934;7.414;2023-05-07T13:23:39;21.80;99.90
35804;DHT22;21924;51.934;7.414;2023-05-07T13:26:24;21.60;99.90
35804;DHT22;21924;51.934;7.414;2023-05-07T13:29:09;22.20;99.90
35804;DHT22;21924;51.934;7.414;2023-05-07T13:31:57;22.20;99.90
35804;DHT22;21924;51.934;7.414;2023-05-07T13:34:41;22.60;99.90
35804;DHT22;21924;51.934;7.414;2023-05-07T13:37:25;23.30;99.90
35804;DHT22;21924;51.934;7.414;2023-05-07T13:40:10;23.70;99.90
35804;DHT22;21924;51.934;7.414;2023-05-07T13:42:57;23.20;99.90
35804;DHT22;21924;51.934;7.414;2023-05-07T13:45:42;22.50;99.90
35804;DHT22;21924;51.934;7.414;2023-05-07T13:48:26;22.10;99.90
35804;DHT22;21924;51.934;7.414;2023-05-07T13:51:11;22.10;99.90
35804;DHT22;21924;51.934;7.414;2023-05-07T13:53:55;22.00;99.90
35804;DHT22;21924;51.934;7.414;2023-05-07T13:56:39;22.00;99.90
35804;DHT22;21924;51.934;7.414;2023-05-07T13:59:24;21.90;99.90
35804;DHT22;21924;51.934;7.414;2023-05-07T14:02:08;21.90;99.90
35804;DHT22;21924;51.934;7.414;2023-05-07T14:04:53;21.90;99.90
35804;DHT22;21924;51.934;7.414;2023-05-07T14:07:37;21.90;99.90
35804;DHT22;21924;51.934;7.414;2023-05-07T14:10:21;21.90;99.90
35804;DHT22;21924;51.934;7.414;2023-05-07T14:13:06;21.60;99.90
35804;DHT22;21924;51.934;7.414;2023-05-07T14:15:50;21.60;99.90
35804;DHT22;21924;51.934;7.414;2023-05-07T14:18:34;21.70;99.90
35804;DHT22;21924;51.934;7.414;2023-05-07T14:21:21;21.50;99.90
35804;DHT22;21924;51.934;7.414;2023-05-07T14:24:06;21.20;99.90
35804;DHT22;21924;51.934;7.414;2023-05-07T14:26:51;21.00;99.90
35804;DHT22;21924;51.934;7.414;2023-05-07T14:29:35;20.90;99.90
35804;DHT22;21924;51.934;7.414;2023-05-07T14:32:21;20.80;99.90
35804;DHT22;21924;51.934;7.414;2023-05-07T14:35:06;20.70;99.90
35804;DHT22;21924;51.934;7.414;2023-05-07T14:37:50;20.60;99.90
35804;DHT22;21924;51.934;7.414;2023-05-07T14:40:34;20.50;99.90
35804;DHT22;21924;51.934;7.414;2023-05-07T14:43:19;20.60;99.90
35804;DHT22;21924;51.934;7.414;2023-05-07T14:46:03;20.60;99.90
35804;DHT22;21924;51.934;7.414;2023-05-07T14:48:47;20.40;99.90
35804;DHT22;21924;51.934;7.414;2023-05-07T14:51:32;20.40;99.90
35804;DHT22;21924;51.934;7.414;2023-05-07T14:54:17;20.40;99.90
35804;DHT22;21924;51.934;7.414;2023-05-07T14:57:02;20.10;99.90
35804;DHT22;21924;51.934;7.414;2023-05-07T14:59:46;20.10;99.90
35804;DHT22;21924;51.934;7.414;2023-05-07T15:02:31;20.10;99.90
35804;DHT22;21924;51.934;7.414;2023-05-07T15:05:15;20.10;99.90
35804;DHT22;21924;51.934;7.414;2023-05-07T15:07:59;20.20;99.90
35804;DHT22;21924;51.934;7.414;2023-05-07T15:10:44;20.20;99.90
35804;DHT22;21924;51.934;7.414;2023-05-07T15:13:28;20.00;99.90
35804;DHT22;21924;51.934;7.414;2023-05-07T15:16:13;20.00;99.90
35804;DHT22;21924;51.934;7.414;2023-05-07T15:18:57;20.10;99.90
35804;DHT22;21924;51.934;7.414;2023-05-07T15:21:41;20.00;99.90
35804;DHT22;21924;51.934;7.414;2023-05-07T15:24:25;20.10;99.90
35804;DHT22;21924;51.934;7.414;2023-05-07T15:27:10;20.10;99.90
35804;DHT22;21924;51.934;7.414;2023-05-07T15:29:54;20.10;99.90
35804;DHT22;21924;51.934;7.414;2023-05-07T15:32:39;19.90;99.90
35804;DHT22;21924;51.934;7.414;2023-05-07T15:35:23;19.90;99.90
35804;DHT22;21924;51.934;7.414;2023-05-07T15:38:09;19.90;99.90
35804;DHT22;21924;51.934;7.414;2023-05-07T15:40:53;19.90;99.90
35804;DHT22;21924;51.934;7.414;2023-05-07T15:43:46;20.10;99.90
35804;DHT22;21924;51.934;7.414;2023-05-07T15:46:31;19.80;99.90
35804;DHT22;21924;51.934;7.414;2023-05-07T15:49:15;20.00;99.90
35804;DHT22;21924;51.934;7.414;2023-05-07T15:51:59;19.90;99.90
35804;DHT22;21924;51.934;7.414;2023-05-07T15:54:44;19.80;99.90
35804;DHT22;21924;51.934;7.414;2023-05-07T15:57:28;19.80;99.90
35804;DHT22;21924;51.934;7.414;2023-05-07T16:00:12;19.80;99.90
35804;DHT22;21924;51.934;7.414;2023-05-07T16:02:57;19.90;99.90
35804;DHT22;21924;51.934;7.414;2023-05-07T16:05:41;19.80;99.90
35804;DHT22;21924;51.934;7.414;2023-05-07T16:08:26;19.80;99.90
35804;DHT22;21924;51.934;7.414;2023-05-07T16:11:10;19.70;99.90
35804;DHT22;21924;51.934;7.414;2023-05-07T16:13:54;19.60;99.90
35804;DHT22;21924;51.934;7.414;2023-05-07T16:16:38;19.60;99.90
35804;DHT22;21924;51.934;7.414;2023-05-07T16:19:23;19.60;99.90
35804;DHT22;21924;51.934;7.414;2023-05-07T16:22:07;19.60;99.90
35804;DHT22;21924;51.934;7.414;2023-05-07T16:24:52;19.60;99.90
35804;DHT22;21924;51.934;7.414;2023-05-07T16:27:36;19.60;99.90
35804;DHT22;21924;51.934;7.414;2023-05-07T16:30:20;19.70;99.90
35804;DHT22;21924;51.934;7.414;2023-05-07T16:33:05;19.70;99.90
35804;DHT22;21924;51.934;7.414;2023-05-07T16:35:51;19.60;99.90
35804;DHT22;21924;51.934;7.414;2023-05-07T16:38:35;19.70;99.90
35804;DHT22;21924;51.934;7.414;2023-05-07T16:41:20;19.80;99.90
35804;DHT22;21924;51.934;7.414;2023-05-07T16:44:05;19.80;99.90
35804;DHT22;21924;51.934;7.414;2023-05-07T16:46:49;19.60;99.90
35804;DHT22;21924;51.934;7.414;2023-05-07T16:49:33;19.50;99.90
35804;DHT22;21924;51.934;7.414;2023-05-07T16:52:17;19.30;99.90
35804;DHT22;21924;51.934;7.414;2023-05-07T16:55:02;19.20;99.90
35804;DHT22;21924;51.934;7.414;2023-05-07T16:57:46;19.20;99.90
35804;DHT22;21924;51.934;7.414;2023-05-07T17:00:30;19.10;99.90
35804;DHT22;21924;51.934;7.414;2023-05-07T17:03:15;19.10;99.90
35804;DHT22;21924;51.934;7.414;2023-05-07T17:05:59;19.20;99.90
35804;DHT22;21924;51.934;7.414;2023-05-07T17:08:43;19.10;99.90
35804;DHT22;21924;51.934;7.414;2023-05-07T17:11:27;19.00;99.90
35804;DHT22;21924;51.934;7.414;2023-05-07T17:14:13;18.80;99.90
35804;DHT22;21924;51.934;7.414;2023-05-07T17:16:58;18.70;99.90
35804;DHT22;21924;51.934;7.414;2023-05-07T17:19:43;18.70;99.90
35804;DHT22;21924;51.934;7.414;2023-05-07T17:22:27;18.70;99.90
35804;DHT22;21924;51.934;7.414;2023-05-07T17:25:11;18.70;99.90
35804;DHT22;21924;51.934;7.414;2023-05-07T17:27:56;18.70;99.90